Time;durP1;ratioP1;P1;durP2;ratioP2;P2;SDS_P1;SDS_P2;PMS_P1;PMS_P2;Temp;Humidity;BMP_temperature;BMP_pressure;BME280_temperature;BME280_humidity;BME280_pressure;Samples;Min_cycle;Max_cycle;Signal;HPM_P1;HPM_P2
2024/03/16 00:01:55;;;;;;;50.05;28.88;;;;;;;;;;5019226;28;20038;-94
2024/03/16 00:04:27;;;;;;;50.38;29.25;;;;;;;;;;5014469;28;20033;-93
2024/03/16 00:06:59;;;;;;;46.53;27.75;;;;;;;;;;5016848;28;20076;-92
2024/03/16 00:15:35;;;;;;;69.22;34.42;;;;;;;;;;5018154;28;20051;-93
2024/03/16 00:18:09;;;;;;;40.33;23.13;;;;;;;;;;5016861;28;20073;-94
2024/03/16 00:27:01;;;;;;;41.97;25.17;;;;;;;;;;4996916;28;20058;-94
2024/03/16 00:29:32;;;;;;;48.28;25.50;;;;;;;;;;4976401;28;20403;-94
2024/03/16 00:31:58;;;;;;;44.60;24.95;;;;;;;;;;4978672;28;20640;-95
2024/03/16 00:34:27;;;;;;;38.13;23.50;;;;;;;;;;5002374;28;20078;-93
2024/03/16 00:37:06;;;;;;;40.72;23.63;;;;;;;;;;5003804;28;20136;-95
2024/03/16 00:39:33;;;;;;;41.30;23.30;;;;;;;;;;4996676;28;20038;-93
2024/03/16 00:42:14;;;;;;;42.25;23.13;;;;;;;;;;4994461;28;20129;-94
2024/03/16 00:44:53;;;;;;;38.53;22.90;;;;;;;;;;4974005;28;20035;-93
2024/03/16 00:47:31;;;;;;;34.80;20.92;;;;;;;;;;4976407;28;20038;-94
2024/03/16 00:50:04;;;;;;;39.42;23.10;;;;;;;;;;4922027;29;20047;-94
2024/03/16 00:52:38;;;;;;;36.42;22.75;;;;;;;;;;4955541;28;20604;-94
2024/03/16 00:55:23;;;;;;;36.35;23.23;;;;;;;;;;4976059;28;20090;-93
2024/03/16 00:57:49;;;;;;;38.90;22.70;;;;;;;;;;4990924;28;20077;-94
2024/03/16 01:00:25;;;;;;;35.42;21.98;;;;;;;;;;5001206;28;20038;-92
2024/03/16 01:03:03;;;;;;;39.10;23.73;;;;;;;;;;5013136;28;20065;-93
2024/03/16 01:05:35;;;;;;;35.47;21.63;;;;;;;;;;5013234;28;20027;-92
2024/03/16 01:08:22;;;;;;;37.30;22.30;;;;;;;;;;5013423;28;20022;-92
2024/03/16 01:10:54;;;;;;;39.38;23.17;;;;;;;;;;4996094;28;20038;-91
2024/03/16 01:13:45;;;;;;;36.83;21.13;;;;;;;;;;5004261;28;20566;-91
2024/03/16 01:16:16;;;;;;;38.17;20.77;;;;;;;;;;4984301;28;20553;-91
2024/03/16 01:19:08;;;;;;;34.42;20.60;;;;;;;;;;5012789;28;20026;-92
2024/03/16 01:21:40;;;;;;;34.13;20.33;;;;;;;;;;5012557;28;20092;-91
2024/03/16 01:24:12;;;;;;;33.55;20.48;;;;;;;;;;5012702;28;20064;-92
2024/03/16 01:26:41;;;;;;;33.78;21.00;;;;;;;;;;5012459;28;20022;-92
2024/03/16 01:29:40;;;;;;;34.40;20.30;;;;;;;;;;5013105;28;20038;-91
2024/03/16 01:32:15;;;;;;;38.03;21.38;;;;;;;;;;4969471;28;20022;-92
2024/03/16 01:34:44;;;;;;;35.30;20.40;;;;;;;;;;5030682;28;20022;-92
2024/03/16 01:37:13;;;;;;;40.20;21.40;;;;;;;;;;5004906;28;20025;-92
2024/03/16 01:39:49;;;;;;;35.80;21.10;;;;;;;;;;5017298;28;20010;-91
2024/03/16 01:42:24;;;;;;;31.65;19.25;;;;;;;;;;5043480;28;20035;-91
2024/03/16 01:45:07;;;;;;;33.60;20.98;;;;;;;;;;5021699;28;20494;-92
2024/03/16 01:47:39;;;;;;;29.83;19.08;;;;;;;;;;5015436;28;20026;-92
2024/03/16 01:50:08;;;;;;;29.20;18.55;;;;;;;;;;5035242;28;20025;-92
2024/03/16 01:52:38;;;;;;;31.10;18.08;;;;;;;;;;5035698;28;20052;-92
2024/03/16 01:55:10;;;;;;;30.55;19.45;;;;;;;;;;5034964;28;20076;-92
2024/03/16 02:03:57;;;;;;;32.88;20.20;;;;;;;;;;4974209;28;20507;-89
2024/03/16 02:06:32;;;;;;;29.27;18.35;;;;;;;;;;4946916;29;20043;-93
2024/03/16 02:09:10;;;;;;;29.20;17.85;;;;;;;;;;4941279;29;20476;-92
2024/03/16 02:11:36;;;;;;;31.40;18.75;;;;;;;;;;4980545;28;20042;-92
2024/03/16 02:14:20;;;;;;;38.65;23.25;;;;;;;;;;5015412;28;20061;-92
2024/03/16 02:16:47;;;;;;;36.20;23.02;;;;;;;;;;5015895;28;20049;-92
2024/03/16 02:19:20;;;;;;;38.20;26.95;;;;;;;;;;5021018;28;20044;-92
2024/03/16 02:21:49;;;;;;;39.92;26.17;;;;;;;;;;5004509;28;20101;-91
2024/03/16 02:24:27;;;;;;;32.80;23.35;;;;;;;;;;5014898;28;20038;-92
2024/03/16 02:26:54;;;;;;;37.42;26.70;;;;;;;;;;5015084;28;20037;-92
2024/03/16 02:29:27;;;;;;;33.38;22.85;;;;;;;;;;5014120;28;20026;-92
2024/03/16 02:32:05;;;;;;;37.65;24.38;;;;;;;;;;5015046;28;20493;-92
2024/03/16 02:34:33;;;;;;;31.13;22.10;;;;;;;;;;5015206;28;20042;-92
2024/03/16 02:37:02;;;;;;;36.92;24.73;;;;;;;;;;5013312;28;20037;-92
2024/03/16 02:42:47;;;;;;;34.10;22.35;;;;;;;;;;5015863;28;20041;-92
2024/03/16 02:45:16;;;;;;;36.78;22.27;;;;;;;;;;5014480;28;20021;-90
2024/03/16 02:50:59;;;;;;;32.63;19.70;;;;;;;;;;4994848;28;20082;-91
2024/03/16 02:53:48;;;;;;;38.33;20.75;;;;;;;;;;4978085;28;20034;-91
2024/03/16 02:56:17;;;;;;;35.47;20.38;;;;;;;;;;4978562;28;20027;-93
2024/03/16 03:07:20;;;;;;;41.33;22.33;;;;;;;;;;5035566;28;20047;-92
2024/03/16 03:09:47;;;;;;;42.35;22.60;;;;;;;;;;5017630;28;20752;-92
2024/03/16 03:12:20;;;;;;;35.35;20.63;;;;;;;;;;5019980;28;20118;-92
2024/03/16 03:14:58;;;;;;;37.08;21.88;;;;;;;;;;5037109;28;20061;-92
2024/03/16 03:23:32;;;;;;;34.17;21.03;;;;;;;;;;5033825;28;20168;-92
2024/03/16 03:26:04;;;;;;;36.88;22.15;;;;;;;;;;4997739;28;20287;-92
2024/03/16 03:28:33;;;;;;;36.20;21.23;;;;;;;;;;5005607;28;20032;-92
2024/03/16 03:31:12;;;;;;;34.00;22.05;;;;;;;;;;5017520;28;20029;-93
2024/03/16 03:33:59;;;;;;;35.63;21.40;;;;;;;;;;5030894;28;20128;-89
2024/03/16 03:36:26;;;;;;;39.38;21.55;;;;;;;;;;5019162;28;20052;-92
2024/03/16 03:39:01;;;;;;;35.78;22.17;;;;;;;;;;5016455;28;20028;-93
2024/03/16 03:41:27;;;;;;;37.78;21.92;;;;;;;;;;4997539;28;20026;-92
2024/03/16 03:44:20;;;;;;;38.70;23.45;;;;;;;;;;5006056;28;20053;-92
2024/03/16 03:46:54;;;;;;;38.92;23.25;;;;;;;;;;5017868;28;20034;-93
2024/03/16 03:49:28;;;;;;;36.45;21.80;;;;;;;;;;5017342;28;20030;-92
2024/03/16 03:52:02;;;;;;;38.70;21.80;;;;;;;;;;5016321;28;20569;-92
2024/03/16 03:57:39;;;;;;;35.80;21.35;;;;;;;;;;4955104;29;20038;-92
2024/03/16 04:00:09;;;;;;;35.95;19.65;;;;;;;;;;4938086;29;20054;-91
2024/03/16 04:02:35;;;;;;;38.55;22.52;;;;;;;;;;4918482;29;20044;-92
2024/03/16 04:05:35;;;;;;;37.50;21.75;;;;;;;;;;4922840;29;20051;-93
2024/03/16 04:08:13;;;;;;;39.75;22.30;;;;;;;;;;4935348;29;20138;-92
2024/03/16 04:10:39;;;;;;;41.33;23.88;;;;;;;;;;4935132;29;20125;-92
2024/03/16 04:13:08;;;;;;;42.13;24.55;;;;;;;;;;4934992;29;20024;-93
2024/03/16 04:15:50;;;;;;;41.75;22.85;;;;;;;;;;4934851;29;20046;-92
2024/03/16 04:18:26;;;;;;;37.90;20.75;;;;;;;;;;4930699;29;20050;-91
2024/03/16 04:20:52;;;;;;;37.33;22.27;;;;;;;;;;4919050;29;20032;-92
2024/03/16 04:23:24;;;;;;;40.58;22.40;;;;;;;;;;4918892;29;20079;-92
2024/03/16 04:25:53;;;;;;;41.75;23.00;;;;;;;;;;4918916;29;20175;-91
2024/03/16 04:28:22;;;;;;;38.92;22.13;;;;;;;;;;4918898;29;20036;-91
2024/03/16 04:30:53;;;;;;;34.85;21.30;;;;;;;;;;4918678;29;20099;-91
2024/03/16 04:33:23;;;;;;;39.53;22.30;;;;;;;;;;4925802;28;20035;-93
2024/03/16 04:35:49;;;;;;;39.85;22.02;;;;;;;;;;4996492;28;20026;-92
2024/03/16 04:38:15;;;;;;;42.97;23.58;;;;;;;;;;4996101;28;20026;-92
2024/03/16 04:40:45;;;;;;;35.03;21.80;;;;;;;;;;4996973;28;20038;-91
2024/03/16 04:43:16;;;;;;;42.40;23.58;;;;;;;;;;4998295;28;20026;-92
2024/03/16 04:45:57;;;;;;;32.92;19.40;;;;;;;;;;4997185;28;20030;-92
2024/03/16 04:48:32;;;;;;;37.40;22.95;;;;;;;;;;4997188;28;20026;-92
2024/03/16 04:51:01;;;;;;;36.90;21.45;;;;;;;;;;5010374;28;20038;-92
2024/03/16 04:53:27;;;;;;;37.85;22.67;;;;;;;;;;5015114;28;20038;-91
2024/03/16 04:58:51;;;;;;;43.25;23.95;;;;;;;;;;5009373;28;20080;-92
2024/03/16 05:01:25;;;;;;;37.70;21.65;;;;;;;;;;5102577;22;20075;-89
2024/03/16 05:07:04;;;;;;;34.38;20.38;;;;;;;;;;5039395;28;20045;-93
2024/03/16 05:12:51;;;;;;;36.78;22.13;;;;;;;;;;4976716;28;20034;-92
2024/03/16 05:15:21;;;;;;;40.17;22.40;;;;;;;;;;4975911;28;20042;-92
2024/03/16 05:20:52;;;;;;;39.50;21.98;;;;;;;;;;4962725;28;20031;-92
2024/03/16 05:23:19;;;;;;;36.10;21.02;;;;;;;;;;4963533;28;20030;-91
2024/03/16 05:26:00;;;;;;;34.08;20.27;;;;;;;;;;5015356;28;20080;-94
2024/03/16 05:28:29;;;;;;;42.45;22.05;;;;;;;;;;4999240;28;20475;-94
2024/03/16 05:31:01;;;;;;;43.08;20.98;;;;;;;;;;4999197;28;20494;-91
2024/03/16 05:33:31;;;;;;;33.17;19.85;;;;;;;;;;4999482;28;20030;-92
2024/03/16 05:36:02;;;;;;;35.45;20.55;;;;;;;;;;4999335;28;20070;-92
2024/03/16 05:38:54;;;;;;;37.38;21.17;;;;;;;;;;4998427;28;20045;-93
2024/03/16 05:41:32;;;;;;;38.70;21.38;;;;;;;;;;4940029;29;20047;-91
2024/03/16 05:43:58;;;;;;;37.85;22.63;;;;;;;;;;4940942;29;20058;-91
2024/03/16 05:46:27;;;;;;;34.42;21.08;;;;;;;;;;4939095;29;20468;-91
2024/03/16 05:48:53;;;;;;;34.63;20.73;;;;;;;;;;4938900;29;20027;-91
2024/03/16 05:51:27;;;;;;;34.85;20.42;;;;;;;;;;4940304;28;20104;-92
2024/03/16 05:53:56;;;;;;;;;;;;;;;;;;4999326;28;20057;-92
2024/03/16 05:56:22;;;;;;;37.20;20.98;;;;;;;;;;5005812;28;19929;-91
2024/03/16 05:58:49;;;;;;;34.15;22.30;;;;;;;;;;5019199;28;20053;-91
2024/03/16 06:01:22;;;;;;;32.20;20.95;;;;;;;;;;5019248;28;20065;-93
2024/03/16 06:09:41;;;;;;;35.22;23.00;;;;;;;;;;4975830;28;20081;-92
2024/03/16 06:15:11;;;;;;;31.50;20.37;;;;;;;;;;5036500;28;20131;-92
2024/03/16 06:17:56;;;;;;;30.75;20.35;;;;;;;;;;5035897;28;20035;-93
2024/03/16 06:20:25;;;;;;;36.08;23.02;;;;;;;;;;5018593;28;20035;-92
2024/03/16 06:22:55;;;;;;;37.35;26.20;;;;;;;;;;5020892;28;20112;-92
2024/03/16 06:25:25;;;;;;;35.40;26.42;;;;;;;;;;5018288;28;20053;-92
2024/03/16 06:28:05;;;;;;;43.13;30.95;;;;;;;;;;5015591;28;20096;-92
2024/03/16 06:30:38;;;;;;;38.38;32.85;;;;;;;;;;5012632;28;20041;-88
2024/03/16 06:33:26;;;;;;;36.65;30.40;;;;;;;;;;5003536;28;20038;-89
2024/03/16 06:35:53;;;;;;;40.78;36.35;;;;;;;;;;4999993;28;20034;-89
2024/03/16 06:38:47;;;;;;;;;;;;;;;;;;;;;
2024/03/16 06:41:34;;;;;;;79.68;73.55;;;;;;;;;;5025694;28;20074;-89
2024/03/16 06:44:00;;;;;;;65.30;59.67;;;;;;;;;;5015499;28;20037;-88
2024/03/16 06:49:28;;;;;;;64.45;59.00;;;;;;;;;;4984922;28;20030;-88
2024/03/16 06:51:59;;;;;;;68.65;62.83;;;;;;;;;;4997111;28;20122;-88
2024/03/16 06:54:31;;;;;;;51.55;38.80;;;;;;;;;;4998899;28;20144;-90
2024/03/16 06:56:57;;;;;;;80.28;72.85;;;;;;;;;;4998960;28;20021;-89
2024/03/16 06:59:26;;;;;;;49.03;43.47;;;;;;;;;;5011932;28;20030;-89
2024/03/16 07:01:55;;;;;;;89.03;81.75;;;;;;;;;;5017567;28;20049;-91
2024/03/16 07:04:22;;;;;;;95.57;88.18;;;;;;;;;;5017762;28;20033;-91
2024/03/16 07:07:05;;;;;;;49.13;44.45;;;;;;;;;;5017556;28;20025;-91
2024/03/16 07:09:32;;;;;;;41.60;37.63;;;;;;;;;;5019419;28;20044;-90
2024/03/16 07:12:10;;;;;;;35.85;32.53;;;;;;;;;;5018467;28;20394;-94
2024/03/16 07:14:46;;;;;;;30.73;27.55;;;;;;;;;;5020082;28;20163;-94
2024/03/16 07:20:46;;;;;;;28.55;25.55;;;;;;;;;;4961183;29;20042;-92
2024/03/16 07:23:46;;;;;;;29.05;26.05;;;;;;;;;;4944359;29;20027;-95
2024/03/16 07:26:21;;;;;;;27.67;24.83;;;;;;;;;;4881248;29;20060;-93
2024/03/16 07:29:24;;;;;;;28.48;25.48;;;;;;;;;;4867365;29;20041;-94
2024/03/16 07:32:02;;;;;;;26.15;23.48;;;;;;;;;;4886988;29;20037;-93
2024/03/16 07:34:46;;;;;;;27.48;24.77;;;;;;;;;;4915866;29;20132;-91
2024/03/16 07:37:16;;;;;;;29.17;26.08;;;;;;;;;;4938486;29;20042;-91
2024/03/16 07:39:54;;;;;;;31.90;28.77;;;;;;;;;;4968104;28;20053;-93
2024/03/16 07:42:26;;;;;;;34.50;31.00;;;;;;;;;;4958693;28;20121;-94
2024/03/16 07:44:56;;;;;;;38.80;35.13;;;;;;;;;;5014186;23;20057;-93
2024/03/16 07:47:30;;;;;;;33.25;29.85;;;;;;;;;;5017607;28;20397;-93
2024/03/16 07:49:56;;;;;;;37.97;34.25;;;;;;;;;;5017979;28;20037;-94
2024/03/16 07:52:58;;;;;;;43.85;39.67;;;;;;;;;;5017537;28;20025;-92
2024/03/16 07:55:24;;;;;;;51.83;47.20;;;;;;;;;;5018011;28;20037;-94
2024/03/16 07:57:56;;;;;;;48.35;43.60;;;;;;;;;;5019771;28;20084;-93
2024/03/16 08:00:26;;;;;;;44.17;39.85;;;;;;;;;;5025638;28;20033;-89
2024/03/16 08:02:52;;;;;;;55.47;50.50;;;;;;;;;;5021293;28;20053;-90
2024/03/16 08:05:46;;;;;;;47.88;43.40;;;;;;;;;;5004899;28;20026;-94
2024/03/16 08:08:55;;;;;;;47.83;43.50;;;;;;;;;;5018923;28;20042;-94
2024/03/16 08:11:42;;;;;;;43.35;39.08;;;;;;;;;;5031213;28;20049;-90
2024/03/16 08:17:22;;;;;;;44.85;40.60;;;;;;;;;;5050956;28;20071;-91
2024/03/16 08:23:13;;;;;;;42.38;38.47;;;;;;;;;;5041317;28;20442;-92
2024/03/16 08:25:46;;;;;;;46.35;42.05;;;;;;;;;;4941617;29;20028;-91
2024/03/16 08:28:17;;;;;;;44.90;40.80;;;;;;;;;;4961603;28;20038;-94
2024/03/16 08:30:43;;;;;;;32.42;29.08;;;;;;;;;;5076795;23;20117;-94
2024/03/16 08:33:09;;;;;;;37.53;33.80;;;;;;;;;;5023293;28;20055;-93
2024/03/16 08:35:38;;;;;;;35.17;31.75;;;;;;;;;;5023298;28;20061;-92
2024/03/16 08:38:13;;;;;;;30.17;27.02;;;;;;;;;;5022498;28;20032;-91
2024/03/16 08:40:42;;;;;;;33.35;29.85;;;;;;;;;;5019876;28;20519;-90
2024/03/16 08:43:14;;;;;;;32.17;28.88;;;;;;;;;;5020565;28;20026;-91
2024/03/16 08:45:40;;;;;;;32.10;29.02;;;;;;;;;;5020195;28;20029;-90
2024/03/16 08:48:06;;;;;;;34.03;30.67;;;;;;;;;;5020133;28;20021;-90
2024/03/16 08:50:35;;;;;;;35.67;32.28;;;;;;;;;;5011341;28;20029;-91
2024/03/16 08:53:01;;;;;;;37.60;34.10;;;;;;;;;;5004252;28;20025;-90
2024/03/16 08:55:28;;;;;;;38.88;34.55;;;;;;;;;;5020285;28;20034;-93
2024/03/16 08:57:54;;;;;;;43.28;39.35;;;;;;;;;;5019713;28;20055;-92
2024/03/16 09:00:38;;;;;;;39.60;35.75;;;;;;;;;;5020873;28;20044;-90
2024/03/16 09:03:08;;;;;;;44.92;40.65;;;;;;;;;;5019900;28;20044;-91
2024/03/16 09:08:38;;;;;;;47.63;43.13;;;;;;;;;;5032895;28;20032;-92
2024/03/16 09:11:04;;;;;;;43.38;39.22;;;;;;;;;;5020857;28;20026;-91
2024/03/16 09:13:33;;;;;;;43.97;40.05;;;;;;;;;;5018839;28;20030;-93
2024/03/16 09:19:03;;;;;;;46.75;42.35;;;;;;;;;;5037059;28;20156;-91
2024/03/16 09:21:32;;;;;;;46.75;42.40;;;;;;;;;;5020554;28;20522;-91
2024/03/16 09:24:05;;;;;;;35.55;31.70;;;;;;;;;;5019512;28;20032;-91
2024/03/16 09:29:16;;;;;;;51.92;47.38;;;;;;;;;;4996758;28;19916;-90
2024/03/16 09:31:42;;;;;;;48.35;43.85;;;;;;;;;;4981565;28;20046;-90
2024/03/16 09:34:10;;;;;;;43.75;39.30;;;;;;;;;;4960848;28;20129;-92
2024/03/16 09:36:42;;;;;;;47.60;43.03;;;;;;;;;;4957128;28;20113;-91
2024/03/16 09:39:11;;;;;;;45.40;41.00;;;;;;;;;;4959661;28;20031;-90
2024/03/16 09:41:40;;;;;;;42.22;38.13;;;;;;;;;;4959736;28;20496;-92
2024/03/16 09:44:16;;;;;;;42.90;39.00;;;;;;;;;;4959557;28;20039;-91
2024/03/16 09:46:43;;;;;;;43.92;39.33;;;;;;;;;;4959502;28;20129;-94
2024/03/16 09:49:19;;;;;;;42.60;38.30;;;;;;;;;;4969987;28;20046;-91
2024/03/16 09:51:52;;;;;;;48.13;42.78;;;;;;;;;;4982951;28;20043;-92
2024/03/16 09:54:19;;;;;;;39.78;35.95;;;;;;;;;;4962974;28;20057;-93
2024/03/16 09:57:18;;;;;;;44.22;39.83;;;;;;;;;;4965425;28;20035;-92
2024/03/16 09:59:50;;;;;;;37.20;33.67;;;;;;;;;;5003690;28;20074;-96
2024/03/16 10:02:20;;;;;;;35.70;32.33;;;;;;;;;;5015377;28;20026;-95
2024/03/16 10:04:48;;;;;;;39.95;36.42;;;;;;;;;;5015541;28;20033;-95
2024/03/16 10:07:20;;;;;;;30.77;27.98;;;;;;;;;;5015035;28;20034;-94
2024/03/16 10:09:53;;;;;;;26.77;24.17;;;;;;;;;;5009876;28;20014;-90
2024/03/16 10:12:20;;;;;;;23.55;21.25;;;;;;;;;;5032480;28;20034;-91
2024/03/16 10:15:08;;;;;;;20.52;18.50;;;;;;;;;;5018926;28;20064;-90
2024/03/16 10:17:34;;;;;;;14.90;13.40;;;;;;;;;;5015697;28;20061;-90
2024/03/16 10:20:04;;;;;;;14.20;12.90;;;;;;;;;;5014213;28;20029;-90
2024/03/16 10:22:30;;;;;;;13.00;11.90;;;;;;;;;;4994938;28;20022;-90
2024/03/16 10:24:59;;;;;;;15.65;14.43;;;;;;;;;;5008677;28;20035;-91
2024/03/16 10:27:25;;;;;;;11.13;10.20;;;;;;;;;;5014478;28;20033;-90
2024/03/16 10:29:51;;;;;;;10.68;9.75;;;;;;;;;;5014622;28;20038;-90
2024/03/16 10:32:21;;;;;;;12.68;11.68;;;;;;;;;;4998768;28;20046;-90
2024/03/16 10:34:48;;;;;;;12.80;11.88;;;;;;;;;;4995024;28;20132;-90
2024/03/16 10:37:14;;;;;;;14.00;12.90;;;;;;;;;;4994992;28;20479;-89
2024/03/16 10:39:43;;;;;;;17.45;16.05;;;;;;;;;;4983786;28;20403;-88
2024/03/16 10:42:15;;;;;;;17.92;16.42;;;;;;;;;;4982082;28;20033;-90
2024/03/16 10:44:46;;;;;;;17.52;15.93;;;;;;;;;;4986862;28;20034;-89
2024/03/16 10:47:14;;;;;;;18.58;16.67;;;;;;;;;;4995119;28;20018;-91
2024/03/16 10:49:43;;;;;;;18.42;16.52;;;;;;;;;;4978080;28;20360;-90
2024/03/16 10:52:11;;;;;;;18.73;16.92;;;;;;;;;;4992055;28;20056;-91
2024/03/16 10:54:37;;;;;;;12.68;11.48;;;;;;;;;;4995106;28;20035;-90
2024/03/16 10:57:10;;;;;;;10.10;7.22;;;;;;;;;;4983012;28;20030;-91
2024/03/16 10:59:41;;;;;;;7.95;6.82;;;;;;;;;;4978648;28;20526;-93
2024/03/16 11:02:12;;;;;;;11.40;10.25;;;;;;;;;;4992243;28;20035;-87
2024/03/16 11:04:50;;;;;;;6.80;6.20;;;;;;;;;;5000771;28;20052;-91
2024/03/16 11:07:26;;;;;;;11.80;10.80;;;;;;;;;;4997067;28;20057;-94
2024/03/16 11:10:09;;;;;;;9.82;8.93;;;;;;;;;;4975271;28;20101;-91
2024/03/16 11:12:44;;;;;;;9.30;8.52;;;;;;;;;;4975540;28;20035;-90
2024/03/16 11:15:29;;;;;;;9.95;9.15;;;;;;;;;;4974492;28;20133;-90
2024/03/16 11:24:04;;;;;;;9.93;8.98;;;;;;;;;;5641500;23;20058;-93
2024/03/16 11:48:33;;;;;;;;;;;;;;;;;;;;;
2024/03/16 11:51:00;;;;;;;20.75;19.45;;;;;;;;;;4888305;28;20123;-90
2024/03/16 11:53:28;;;;;;;18.45;17.25;;;;;;;;;;4986296;28;20035;-89
2024/03/16 11:55:55;;;;;;;17.02;15.98;;;;;;;;;;4965050;28;20026;-89
2024/03/16 11:58:21;;;;;;;19.75;18.52;;;;;;;;;;4961668;28;20031;-91
2024/03/16 12:00:52;;;;;;;18.02;16.83;;;;;;;;;;4962231;28;20031;-91
2024/03/16 12:03:20;;;;;;;22.35;20.95;;;;;;;;;;4973800;28;20030;-88
2024/03/16 12:06:11;;;;;;;18.02;16.83;;;;;;;;;;4962034;28;20458;-90
2024/03/16 12:08:55;;;;;;;20.20;18.92;;;;;;;;;;4938987;29;20052;-89
2024/03/16 12:11:21;;;;;;;12.95;12.00;;;;;;;;;;4922942;29;20043;-91
2024/03/16 12:17:15;;;;;;;9.50;8.80;;;;;;;;;;4991934;23;20058;-92
2024/03/16 12:19:47;;;;;;;7.15;6.63;;;;;;;;;;4944479;29;20031;-89
2024/03/16 12:22:17;;;;;;;7.88;7.07;;;;;;;;;;4947177;29;20031;-90
2024/03/16 12:24:54;;;;;;;6.25;5.72;;;;;;;;;;4943023;29;20087;-91
2024/03/16 12:27:20;;;;;;;6.45;5.78;;;;;;;;;;4952698;28;20562;-91
2024/03/16 12:29:59;;;;;;;7.53;7.03;;;;;;;;;;4978258;28;20070;-92
2024/03/16 12:32:29;;;;;;;6.32;5.82;;;;;;;;;;4955732;29;20031;-91
2024/03/16 12:35:21;;;;;;;6.88;6.38;;;;;;;;;;4944757;29;20044;-93
2024/03/16 12:38:03;;;;;;;5.10;4.68;;;;;;;;;;4935085;29;20480;-92
2024/03/16 12:40:34;;;;;;;5.95;5.45;;;;;;;;;;4960039;28;20031;-94
2024/03/16 12:43:01;;;;;;;4.90;4.50;;;;;;;;;;4961458;28;20039;-94
2024/03/16 12:45:31;;;;;;;6.57;6.15;;;;;;;;;;4953106;29;20027;-90
2024/03/16 12:48:03;;;;;;;8.23;7.63;;;;;;;;;;4947208;28;20038;-89
2024/03/16 12:50:31;;;;;;;7.45;6.85;;;;;;;;;;4945207;28;20027;-92
2024/03/16 12:53:00;;;;;;;9.05;8.35;;;;;;;;;;4961046;28;20046;-93
2024/03/16 12:55:49;;;;;;;9.40;8.80;;;;;;;;;;4961898;28;20038;-91
2024/03/16 12:58:25;;;;;;;10.43;9.73;;;;;;;;;;4961484;28;20023;-92
2024/03/16 13:00:51;;;;;;;10.15;9.55;;;;;;;;;;4948604;29;20028;-91
2024/03/16 13:03:35;;;;;;;;;;;;;;;;;;;;;
2024/03/16 13:06:11;;;;;;;;;;;;;;;;;;;;;
2024/03/16 13:08:38;;;;;;;12.93;12.02;;;;;;;;;;4966452;28;20460;-91
2024/03/16 13:11:04;;;;;;;13.35;12.27;;;;;;;;;;4960983;28;20033;-90
2024/03/16 13:13:30;;;;;;;9.80;9.00;;;;;;;;;;4955190;29;20031;-91
2024/03/16 13:15:56;;;;;;;15.15;14.05;;;;;;;;;;4950405;29;20051;-91
2024/03/16 13:18:22;;;;;;;17.15;15.93;;;;;;;;;;4941790;29;20082;-93
2024/03/16 13:20:48;;;;;;;16.45;14.90;;;;;;;;;;4941878;29;20031;-92
2024/03/16 13:23:14;;;;;;;13.98;12.73;;;;;;;;;;4943746;28;20023;-92
2024/03/16 13:25:51;;;;;;;16.08;15.18;;;;;;;;;;4955647;29;20444;-90
2024/03/16 13:28:17;;;;;;;15.18;14.30;;;;;;;;;;4945179;29;20027;-91
2024/03/16 13:30:47;;;;;;;17.08;16.05;;;;;;;;;;4941322;29;20035;-93
2024/03/16 13:33:32;;;;;;;;;;;;;;;;;;;;;
2024/03/16 13:36:09;;;;;;;16.35;15.35;;;;;;;;;;5017727;23;20066;-90
2024/03/16 13:41:41;;;;;;;16.42;15.23;;;;;;;;;;4978677;28;20380;-92
2024/03/16 13:44:13;;;;;;;14.57;13.75;;;;;;;;;;4961910;28;20023;-91
2024/03/16 13:46:42;;;;;;;15.90;15.00;;;;;;;;;;4960530;28;20045;-92
2024/03/16 13:49:31;;;;;;;14.93;14.05;;;;;;;;;;4960506;28;20465;-94
2024/03/16 13:52:03;;;;;;;15.13;14.05;;;;;;;;;;4936460;29;20043;-94
2024/03/16 13:54:30;;;;;;;16.88;15.90;;;;;;;;;;4964305;28;20043;-91
2024/03/16 13:56:59;;;;;;;16.00;15.05;;;;;;;;;;4959963;28;20507;-91
2024/03/16 13:59:25;;;;;;;14.88;13.90;;;;;;;;;;4960033;28;20038;-91
2024/03/16 14:01:51;;;;;;;16.58;15.57;;;;;;;;;;4960024;28;20030;-90
2024/03/16 14:04:19;;;;;;;16.33;15.43;;;;;;;;;;4951780;29;20034;-91
2024/03/16 14:09:21;;;;;;;16.20;15.20;;;;;;;;;;5019373;23;20066;-90
2024/03/16 14:11:47;;;;;;;12.88;12.07;;;;;;;;;;4956523;28;20023;-91
2024/03/16 14:14:15;;;;;;;13.07;12.20;;;;;;;;;;4940726;29;20063;-92
2024/03/16 14:16:41;;;;;;;14.50;13.57;;;;;;;;;;4940746;29;20078;-93
2024/03/16 14:19:12;;;;;;;11.77;11.02;;;;;;;;;;4940385;29;20122;-91
2024/03/16 14:21:38;;;;;;;14.02;13.13;;;;;;;;;;4940799;29;20047;-92
2024/03/16 14:24:10;;;;;;;12.00;11.30;;;;;;;;;;4956789;28;20042;-91
2024/03/16 14:26:41;;;;;;;13.20;12.35;;;;;;;;;;4960199;28;20101;-90
2024/03/16 14:29:13;;;;;;;12.82;11.75;;;;;;;;;;4959861;28;20031;-95
2024/03/16 14:31:39;;;;;;;18.75;17.65;;;;;;;;;;4953691;29;20118;-91
2024/03/16 14:34:07;;;;;;;18.70;17.15;;;;;;;;;;4940378;29;20053;-91
2024/03/16 14:36:33;;;;;;;16.35;15.25;;;;;;;;;;4940139;29;20106;-91
2024/03/16 14:39:00;;;;;;;15.88;14.88;;;;;;;;;;4939605;29;20034;-90
2024/03/16 14:41:26;;;;;;;15.80;14.85;;;;;;;;;;4939962;29;20431;-89
2024/03/16 14:43:55;;;;;;;17.27;16.17;;;;;;;;;;4956751;29;20031;-90
2024/03/16 14:46:22;;;;;;;16.58;15.48;;;;;;;;;;4939983;29;20031;-90
2024/03/16 14:48:48;;;;;;;17.65;16.48;;;;;;;;;;4939917;29;20031;-90
2024/03/16 14:51:17;;;;;;;15.43;14.38;;;;;;;;;;4946164;28;20062;-90
2024/03/16 14:53:43;;;;;;;18.23;17.00;;;;;;;;;;4959197;28;20163;-90
2024/03/16 14:56:09;;;;;;;15.27;14.38;;;;;;;;;;4948043;29;20169;-89
2024/03/16 14:58:35;;;;;;;19.35;18.17;;;;;;;;;;4939911;29;20030;-92
2024/03/16 15:01:02;;;;;;;17.30;16.30;;;;;;;;;;4939964;29;20140;-90
2024/03/16 15:03:28;;;;;;;13.98;12.98;;;;;;;;;;4940182;29;20074;-89
2024/03/16 15:05:54;;;;;;;14.55;13.65;;;;;;;;;;4941980;28;20035;-91
2024/03/16 15:08:20;;;;;;;14.45;13.63;;;;;;;;;;4958645;28;20054;-91
2024/03/16 15:10:46;;;;;;;13.88;12.93;;;;;;;;;;4958762;28;20106;-93
2024/03/16 15:13:13;;;;;;;17.35;16.35;;;;;;;;;;4920677;29;20445;-90
2024/03/16 15:15:39;;;;;;;15.80;14.80;;;;;;;;;;4932413;28;20057;-90
2024/03/16 15:18:06;;;;;;;13.15;12.25;;;;;;;;;;4963373;28;20020;-89
2024/03/16 15:20:33;;;;;;;18.00;16.70;;;;;;;;;;4953846;29;20026;-91
2024/03/16 15:23:00;;;;;;;17.70;16.40;;;;;;;;;;4940331;29;20021;-90
2024/03/16 15:25:39;;;;;;;16.65;15.48;;;;;;;;;;4921187;29;20031;-90
2024/03/16 15:28:13;;;;;;;21.85;20.33;;;;;;;;;;4943856;28;20031;-90
2024/03/16 15:30:39;;;;;;;18.73;17.35;;;;;;;;;;4938170;29;20042;-89
2024/03/16 15:33:05;;;;;;;19.23;17.65;;;;;;;;;;4939065;29;20023;-89
2024/03/16 15:35:31;;;;;;;20.02;18.33;;;;;;;;;;4943229;28;20046;-88
2024/03/16 15:37:57;;;;;;;19.88;18.08;;;;;;;;;;4951379;29;20023;-91
2024/03/16 15:40:23;;;;;;;16.48;15.15;;;;;;;;;;4940570;29;20172;-90
2024/03/16 15:42:49;;;;;;;20.50;19.05;;;;;;;;;;4939732;29;20023;-91
2024/03/16 15:45:16;;;;;;;15.82;14.63;;;;;;;;;;4923490;29;20054;-89
2024/03/16 15:47:43;;;;;;;16.38;15.07;;;;;;;;;;4939353;29;20468;-91
2024/03/16 15:50:09;;;;;;;20.48;18.77;;;;;;;;;;4939106;29;20035;-90
2024/03/16 15:52:38;;;;;;;17.73;16.40;;;;;;;;;;4938586;29;20034;-89
2024/03/16 15:55:04;;;;;;;18.70;17.35;;;;;;;;;;4938966;29;20086;-90
2024/03/16 15:57:33;;;;;;;16.85;15.55;;;;;;;;;;4939397;29;20487;-89
2024/03/16 15:59:59;;;;;;;19.02;17.73;;;;;;;;;;4942045;28;20154;-90
2024/03/16 16:02:25;;;;;;;19.60;18.27;;;;;;;;;;4959699;28;20049;-90
2024/03/16 16:04:51;;;;;;;28.75;26.90;;;;;;;;;;4942299;29;20403;-90
2024/03/16 16:07:17;;;;;;;19.55;18.17;;;;;;;;;;4938880;29;20027;-90
2024/03/16 16:09:43;;;;;;;24.13;22.65;;;;;;;;;;4947353;28;20475;-90
2024/03/16 16:12:10;;;;;;;21.60;20.10;;;;;;;;;;4924069;29;20496;-90
2024/03/16 16:14:36;;;;;;;17.02;15.98;;;;;;;;;;4939425;29;20035;-90
2024/03/16 16:17:07;;;;;;;25.73;24.10;;;;;;;;;;4921512;29;20497;-91
2024/03/16 16:19:33;;;;;;;23.98;22.30;;;;;;;;;;4920674;29;20024;-92
2024/03/16 16:22:17;;;;;;;19.48;18.02;;;;;;;;;;4931792;29;20377;-90
2024/03/16 16:24:45;;;;;;;16.10;14.75;;;;;;;;;;4939683;29;20444;-89
2024/03/16 16:27:17;;;;;;;15.90;14.77;;;;;;;;;;4938954;29;20121;-90
2024/03/16 16:29:43;;;;;;;18.13;16.92;;;;;;;;;;4939641;29;20532;-89
2024/03/16 16:32:21;;;;;;;16.75;15.43;;;;;;;;;;4939710;29;20078;-90
2024/03/16 16:35:30;;;;;;;19.00;17.73;;;;;;;;;;4941193;29;20094;-91
2024/03/16 16:37:55;;;;;;;7.43;6.68;;;;;;;;;;4966713;28;20039;-92
2024/03/16 16:40:24;;;;;;;12.70;11.57;;;;;;;;;;4959119;28;20114;-90
2024/03/16 16:42:56;;;;;;;13.05;12.05;;;;;;;;;;4943616;29;20035;-90
2024/03/16 16:45:22;;;;;;;14.07;12.85;;;;;;;;;;4939401;29;20114;-89
2024/03/16 16:47:49;;;;;;;21.90;20.05;;;;;;;;;;4940271;29;20039;-91
2024/03/16 16:50:23;;;;;;;17.92;16.13;;;;;;;;;;4959475;28;20023;-90
2024/03/16 16:52:58;;;;;;;15.93;14.70;;;;;;;;;;4962802;28;20039;-92
2024/03/16 16:55:41;;;;;;;43.00;39.80;;;;;;;;;;4961441;28;20069;-91